sensor_id;sensor_type;location;lat;lon;timestamp;temperature;humidity
19496;DHT22;9888;48.606;9.630;2022-08-02T00:02:10;14.30;99.90
19496;DHT22;9888;48.606;9.630;2022-08-02T00:04:38;14.30;99.90
19496;DHT22;9888;48.606;9.630;2022-08-02T00:07:05;14.20;99.90
19496;DHT22;9888;48.606;9.630;2022-08-02T00:09:31;14.20;99.90
19496;DHT22;9888;48.606;9.630;2022-08-02T00:11:59;14.30;99.90
19496;DHT22;9888;48.606;9.630;2022-08-02T00:14:26;14.30;99.90
19496;DHT22;9888;48.606;9.630;2022-08-02T00:16:53;14.30;99.90
19496;DHT22;9888;48.606;9.630;2022-08-02T00:19:21;14.30;99.90
19496;DHT22;9888;48.606;9.630;2022-08-02T00:21:48;14.40;99.90
19496;DHT22;9888;48.606;9.630;2022-08-02T00:24:15;14.40;99.90
19496;DHT22;9888;48.606;9.630;2022-08-02T00:26:44;14.50;99.90
19496;DHT22;9888;48.606;9.630;2022-08-02T00:29:14;14.50;99.90
19496;DHT22;9888;48.606;9.630;2022-08-02T00:31:41;14.50;99.90
19496;DHT22;9888;48.606;9.630;2022-08-02T00:34:08;14.50;99.90
19496;DHT22;9888;48.606;9.630;2022-08-02T00:36:36;14.50;99.90
19496;DHT22;9888;48.606;9.630;2022-08-02T00:39:03;14.50;99.90
19496;DHT22;9888;48.606;9.630;2022-08-02T00:41:30;14.50;99.90
19496;DHT22;9888;48.606;9.630;2022-08-02T00:43:57;14.40;99.90
19496;DHT22;9888;48.606;9.630;2022-08-02T00:46:24;14.50;99.90
19496;DHT22;9888;48.606;9.630;2022-08-02T00:48:52;14.50;99.90
19496;DHT22;9888;48.606;9.630;2022-08-02T00:51:21;14.50;99.90
19496;DHT22;9888;48.606;9.630;2022-08-02T00:53:48;14.50;99.90
19496;DHT22;9888;48.606;9.630;2022-08-02T00:56:14;14.50;99.90
19496;DHT22;9888;48.606;9.630;2022-08-02T00:58:42;14.40;99.90
19496;DHT22;9888;48.606;9.630;2022-08-02T01:01:09;14.40;99.90
19496;DHT22;9888;48.606;9.630;2022-08-02T01:03:36;14.30;99.90
19496;DHT22;9888;48.606;9.630;2022-08-02T01:06:03;14.30;99.90
19496;DHT22;9888;48.606;9.630;2022-08-02T01:08:31;14.30;99.90
19496;DHT22;9888;48.606;9.630;2022-08-02T01:10:58;14.30;99.90
19496;DHT22;9888;48.606;9.630;2022-08-02T01:13:25;14.30;99.90
19496;DHT22;9888;48.606;9.630;2022-08-02T01:16:10;14.20;99.90
19496;DHT22;9888;48.606;9.630;2022-08-02T01:18:44;14.30;99.90
19496;DHT22;9888;48.606;9.630;2022-08-02T01:27:20;14.20;99.90
19496;DHT22;9888;48.606;9.630;2022-08-02T01:29:56;14.10;99.90
19496;DHT22;9888;48.606;9.630;2022-08-02T01:32:30;14.10;99.90
19496;DHT22;9888;48.606;9.630;2022-08-02T01:35:05;14.20;99.90
19496;DHT22;9888;48.606;9.630;2022-08-02T01:37:55;14.20;99.90
19496;DHT22;9888;48.606;9.630;2022-08-02T01:40:36;14.20;99.90
19496;DHT22;9888;48.606;9.630;2022-08-02T01:43:03;14.20;99.90
19496;DHT22;9888;48.606;9.630;2022-08-02T01:45:33;14.30;99.90
19496;DHT22;9888;48.606;9.630;2022-08-02T01:48:02;14.30;99.90
19496;DHT22;9888;48.606;9.630;2022-08-02T01:50:32;14.30;99.90
19496;DHT22;9888;48.606;9.630;2022-08-02T01:53:05;14.40;99.90
19496;DHT22;9888;48.606;9.630;2022-08-02T01:58:06;14.40;99.90
19496;DHT22;9888;48.606;9.630;2022-08-02T02:00:37;14.40;99.90
19496;DHT22;9888;48.606;9.630;2022-08-02T02:03:11;14.40;99.90
19496;DHT22;9888;48.606;9.630;2022-08-02T02:05:39;14.40;99.90
19496;DHT22;9888;48.606;9.630;2022-08-02T02:08:07;14.40;99.90
19496;DHT22;9888;48.606;9.630;2022-08-02T02:10:37;14.40;99.90
19496;DHT22;9888;48.606;9.630;2022-08-02T02:13:07;14.40;99.90
19496;DHT22;9888;48.606;9.630;2022-08-02T02:15:40;14.30;99.90
19496;DHT22;9888;48.606;9.630;2022-08-02T02:18:11;14.20;99.90
19496;DHT22;9888;48.606;9.630;2022-08-02T02:20:41;14.10;99.90
19496;DHT22;9888;48.606;9.630;2022-08-02T02:23:09;14.10;99.90
19496;DHT22;9888;48.606;9.630;2022-08-02T02:25:39;14.10;99.90
19496;DHT22;9888;48.606;9.630;2022-08-02T02:28:12;14.00;99.90
19496;DHT22;9888;48.606;9.630;2022-08-02T02:30:44;13.90;99.90
19496;DHT22;9888;48.606;9.630;2022-08-02T02:33:13;13.80;99.90
19496;DHT22;9888;48.606;9.630;2022-08-02T02:35:44;13.80;99.90
19496;DHT22;9888;48.606;9.630;2022-08-02T02:38:14;13.80;99.90
19496;DHT22;9888;48.606;9.630;2022-08-02T02:40:45;13.70;99.90
19496;DHT22;9888;48.606;9.630;2022-08-02T02:43:14;13.60;99.90
19496;DHT22;9888;48.606;9.630;2022-08-02T02:45:43;13.70;99.90
19496;DHT22;9888;48.606;9.630;2022-08-02T02:48:12;13.70;99.90
19496;DHT22;9888;48.606;9.630;2022-08-02T02:50:41;13.70;99.90
19496;DHT22;9888;48.606;9.630;2022-08-02T02:53:10;13.70;99.90
19496;DHT22;9888;48.606;9.630;2022-08-02T02:55:39;13.70;99.90
19496;DHT22;9888;48.606;9.630;2022-08-02T02:58:07;13.80;99.90
19496;DHT22;9888;48.606;9.630;2022-08-02T03:00:34;13.80;99.90
19496;DHT22;9888;48.606;9.630;2022-08-02T03:03:20;13.90;99.90
19496;DHT22;9888;48.606;9.630;2022-08-02T03:05:47;13.80;99.90
19496;DHT22;9888;48.606;9.630;2022-08-02T03:08:15;13.80;99.90
19496;DHT22;9888;48.606;9.630;2022-08-02T03:10:43;13.80;99.90
19496;DHT22;9888;48.606;9.630;2022-08-02T03:13:11;13.70;99.90
19496;DHT22;9888;48.606;9.630;2022-08-02T03:15:39;13.60;99.90
19496;DHT22;9888;48.606;9.630;2022-08-02T03:18:07;13.60;99.90
19496;DHT22;9888;48.606;9.630;2022-08-02T03:20:34;13.60;99.90
19496;DHT22;9888;48.606;9.630;2022-08-02T03:23:01;13.60;99.90
19496;DHT22;9888;48.606;9.630;2022-08-02T03:25:28;13.50;99.90
19496;DHT22;9888;48.606;9.630;2022-08-02T03:27:55;13.60;99.90
19496;DHT22;9888;48.606;9.630;2022-08-02T03:30:22;13.60;99.90
19496;DHT22;9888;48.606;9.630;2022-08-02T03:32:52;13.50;99.90
19496;DHT22;9888;48.606;9.630;2022-08-02T03:35:19;13.50;99.90
19496;DHT22;9888;48.606;9.630;2022-08-02T03:37:46;13.50;99.90
19496;DHT22;9888;48.606;9.630;2022-08-02T03:40:14;13.40;99.90
19496;DHT22;9888;48.606;9.630;2022-08-02T03:42:42;13.30;99.90
19496;DHT22;9888;48.606;9.630;2022-08-02T03:45:11;13.20;99.90
19496;DHT22;9888;48.606;9.630;2022-08-02T03:47:40;13.10;99.90
19496;DHT22;9888;48.606;9.630;2022-08-02T03:50:10;13.10;99.90
19496;DHT22;9888;48.606;9.630;2022-08-02T03:52:42;13.00;99.90
19496;DHT22;9888;48.606;9.630;2022-08-02T03:55:11;13.00;99.90
19496;DHT22;9888;48.606;9.630;2022-08-02T03:57:40;12.90;99.90
19496;DHT22;9888;48.606;9.630;2022-08-02T04:00:09;12.80;99.90
19496;DHT22;9888;48.606;9.630;2022-08-02T04:02:36;12.90;99.90
19496;DHT22;9888;48.606;9.630;2022-08-02T04:05:04;12.90;99.90
19496;DHT22;9888;48.606;9.630;2022-08-02T04:07:32;12.90;99.90
19496;DHT22;9888;48.606;9.630;2022-08-02T04:09:59;12.90;99.90
19496;DHT22;9888;48.606;9.630;2022-08-02T04:12:33;12.80;99.90
19496;DHT22;9888;48.606;9.630;2022-08-02T04:15:04;12.80;99.90
19496;DHT22;9888;48.606;9.630;2022-08-02T04:17:39;12.70;99.90
19496;DHT22;9888;48.606;9.630;2022-08-02T04:20:17;12.70;99.90
19496;DHT22;9888;48.606;9.630;2022-08-02T04:23:05;12.70;99.90
19496;DHT22;9888;48.606;9.630;2022-08-02T04:25:34;12.80;99.90
19496;DHT22;9888;48.606;9.630;2022-08-02T04:28:02;12.90;99.90
19496;DHT22;9888;48.606;9.630;2022-08-02T04:30:30;13.00;99.90
19496;DHT22;9888;48.606;9.630;2022-08-02T04:32:58;13.00;99.90
19496;DHT22;9888;48.606;9.630;2022-08-02T04:35:25;13.00;99.90
19496;DHT22;9888;48.606;9.630;2022-08-02T04:37:53;13.10;99.90
19496;DHT22;9888;48.606;9.630;2022-08-02T04:40:21;13.20;99.90
19496;DHT22;9888;48.606;9.630;2022-08-02T04:42:55;13.30;99.90
19496;DHT22;9888;48.606;9.630;2022-08-02T04:45:22;13.40;99.90
19496;DHT22;9888;48.606;9.630;2022-08-02T04:47:50;13.50;99.90
19496;DHT22;9888;48.606;9.630;2022-08-02T04:50:17;13.60;99.90
19496;DHT22;9888;48.606;9.630;2022-08-02T04:52:46;13.70;99.90
19496;DHT22;9888;48.606;9.630;2022-08-02T04:55:14;13.90;99.90
19496;DHT22;9888;48.606;9.630;2022-08-02T04:57:41;14.00;99.90
19496;DHT22;9888;48.606;9.630;2022-08-02T05:00:21;14.10;99.90
19496;DHT22;9888;48.606;9.630;2022-08-02T05:02:49;14.20;99.90
19496;DHT22;9888;48.606;9.630;2022-08-02T05:05:18;14.30;99.90
19496;DHT22;9888;48.606;9.630;2022-08-02T05:07:45;14.40;99.90
19496;DHT22;9888;48.606;9.630;2022-08-02T05:10:12;14.50;99.90
19496;DHT22;9888;48.606;9.630;2022-08-02T05:12:40;14.60;99.90
19496;DHT22;9888;48.606;9.630;2022-08-02T05:15:08;14.80;99.90
19496;DHT22;9888;48.606;9.630;2022-08-02T05:17:36;14.90;99.90
19496;DHT22;9888;48.606;9.630;2022-08-02T05:20:04;15.00;99.90
19496;DHT22;9888;48.606;9.630;2022-08-02T05:22:34;15.10;99.90
19496;DHT22;9888;48.606;9.630;2022-08-02T05:25:01;15.20;99.90
19496;DHT22;9888;48.606;9.630;2022-08-02T05:27:28;15.40;99.90
19496;DHT22;9888;48.606;9.630;2022-08-02T05:29:54;15.50;99.90
19496;DHT22;9888;48.606;9.630;2022-08-02T05:32:23;15.60;99.90
19496;DHT22;9888;48.606;9.630;2022-08-02T05:34:50;15.80;99.90
19496;DHT22;9888;48.606;9.630;2022-08-02T05:37:17;16.00;99.90
19496;DHT22;9888;48.606;9.630;2022-08-02T05:39:45;16.10;99.90
19496;DHT22;9888;48.606;9.630;2022-08-02T05:42:12;16.30;99.90
19496;DHT22;9888;48.606;9.630;2022-08-02T05:44:39;16.50;99.90
19496;DHT22;9888;48.606;9.630;2022-08-02T05:47:06;16.70;99.90
19496;DHT22;9888;48.606;9.630;2022-08-02T05:49:35;16.70;99.90
19496;DHT22;9888;48.606;9.630;2022-08-02T05:52:23;16.80;99.90
19496;DHT22;9888;48.606;9.630;2022-08-02T05:55:11;17.10;99.90
19496;DHT22;9888;48.606;9.630;2022-08-02T06:01:37;17.50;99.90
19496;DHT22;9888;48.606;9.630;2022-08-02T06:04:08;17.60;99.90
19496;DHT22;9888;48.606;9.630;2022-08-02T06:06:36;17.60;99.90
19496;DHT22;9888;48.606;9.630;2022-08-02T06:09:09;17.60;99.90
19496;DHT22;9888;48.606;9.630;2022-08-02T06:11:45;17.60;99.90
19496;DHT22;9888;48.606;9.630;2022-08-02T06:14:12;17.70;99.90
19496;DHT22;9888;48.606;9.630;2022-08-02T06:16:40;17.70;99.90
19496;DHT22;9888;48.606;9.630;2022-08-02T06:19:11;17.70;99.90
19496;DHT22;9888;48.606;9.630;2022-08-02T06:21:41;17.80;99.90
19496;DHT22;9888;48.606;9.630;2022-08-02T06:24:10;17.90;99.90
19496;DHT22;9888;48.606;9.630;2022-08-02T06:26:40;18.00;99.90
19496;DHT22;9888;48.606;9.630;2022-08-02T06:29:12;18.00;99.90
19496;DHT22;9888;48.606;9.630;2022-08-02T06:31:41;18.00;99.90
19496;DHT22;9888;48.606;9.630;2022-08-02T06:34:08;18.10;99.90
19496;DHT22;9888;48.606;9.630;2022-08-02T06:36:56;18.20;99.90
19496;DHT22;9888;48.606;9.630;2022-08-02T06:39:33;18.30;99.90
19496;DHT22;9888;48.606;9.630;2022-08-02T06:42:11;18.40;99.90
19496;DHT22;9888;48.606;9.630;2022-08-02T06:44:39;18.60;99.90
19496;DHT22;9888;48.606;9.630;2022-08-02T06:47:08;18.80;99.90
19496;DHT22;9888;48.606;9.630;2022-08-02T06:49:35;18.90;99.90
19496;DHT22;9888;48.606;9.630;2022-08-02T06:52:23;19.10;99.90
19496;DHT22;9888;48.606;9.630;2022-08-02T06:54:51;19.30;99.90
19496;DHT22;9888;48.606;9.630;2022-08-02T06:57:20;19.30;99.90
19496;DHT22;9888;48.606;9.630;2022-08-02T06:59:48;19.40;99.90
19496;DHT22;9888;48.606;9.630;2022-08-02T07:02:15;19.50;99.90
19496;DHT22;9888;48.606;9.630;2022-08-02T07:04:43;19.50;99.90
19496;DHT22;9888;48.606;9.630;2022-08-02T07:07:11;19.50;99.90
19496;DHT22;9888;48.606;9.630;2022-08-02T07:09:39;19.50;99.90
19496;DHT22;9888;48.606;9.630;2022-08-02T07:12:06;19.60;99.90
19496;DHT22;9888;48.606;9.630;2022-08-02T07:14:34;19.80;99.90
19496;DHT22;9888;48.606;9.630;2022-08-02T07:17:00;19.70;99.90
19496;DHT22;9888;48.606;9.630;2022-08-02T07:19:28;19.80;99.90
19496;DHT22;9888;48.606;9.630;2022-08-02T07:21:55;19.80;99.90
19496;DHT22;9888;48.606;9.630;2022-08-02T07:24:22;19.80;99.90
19496;DHT22;9888;48.606;9.630;2022-08-02T07:26:50;20.00;99.90
19496;DHT22;9888;48.606;9.630;2022-08-02T07:29:17;20.10;99.90
19496;DHT22;9888;48.606;9.630;2022-08-02T07:31:45;20.30;99.90
19496;DHT22;9888;48.606;9.630;2022-08-02T07:34:18;20.50;99.90
19496;DHT22;9888;48.606;9.630;2022-08-02T07:36:45;20.70;99.90
19496;DHT22;9888;48.606;9.630;2022-08-02T07:39:12;21.00;99.90
19496;DHT22;9888;48.606;9.630;2022-08-02T07:41:41;21.10;99.90
19496;DHT22;9888;48.606;9.630;2022-08-02T07:44:08;21.30;99.90
19496;DHT22;9888;48.606;9.630;2022-08-02T07:46:39;21.40;99.90
19496;DHT22;9888;48.606;9.630;2022-08-02T07:49:09;21.70;99.90
19496;DHT22;9888;48.606;9.630;2022-08-02T07:51:37;21.90;99.90
19496;DHT22;9888;48.606;9.630;2022-08-02T07:54:04;22.00;99.90
19496;DHT22;9888;48.606;9.630;2022-08-02T07:56:35;22.20;99.90
19496;DHT22;9888;48.606;9.630;2022-08-02T07:59:04;22.40;99.90
19496;DHT22;9888;48.606;9.630;2022-08-02T08:01:32;22.50;99.90
19496;DHT22;9888;48.606;9.630;2022-08-02T08:03:59;22.60;99.90
19496;DHT22;9888;48.606;9.630;2022-08-02T08:06:27;22.70;99.90
19496;DHT22;9888;48.606;9.630;2022-08-02T08:08:54;22.80;99.90
19496;DHT22;9888;48.606;9.630;2022-08-02T08:11:22;23.00;99.90
19496;DHT22;9888;48.606;9.630;2022-08-02T08:17:06;23.20;99.90
19496;DHT22;9888;48.606;9.630;2022-08-02T08:19:36;23.10;99.90
19496;DHT22;9888;48.606;9.630;2022-08-02T08:22:04;23.10;99.90
19496;DHT22;9888;48.606;9.630;2022-08-02T08:24:39;23.00;99.90
19496;DHT22;9888;48.606;9.630;2022-08-02T08:27:09;23.00;99.90
19496;DHT22;9888;48.606;9.630;2022-08-02T08:29:45;23.10;99.90
19496;DHT22;9888;48.606;9.630;2022-08-02T08:32:18;22.70;99.90
19496;DHT22;9888;48.606;9.630;2022-08-02T08:34:50;22.80;99.90
19496;DHT22;9888;48.606;9.630;2022-08-02T08:37:17;23.00;99.90
19496;DHT22;9888;48.606;9.630;2022-08-02T08:40:20;23.10;99.90
19496;DHT22;9888;48.606;9.630;2022-08-02T08:46:30;23.60;99.90
19496;DHT22;9888;48.606;9.630;2022-08-02T08:52:52;24.00;99.90
19496;DHT22;9888;48.606;9.630;2022-08-02T08:55:22;24.20;99.90
19496;DHT22;9888;48.606;9.630;2022-08-02T08:58:21;24.40;99.90
19496;DHT22;9888;48.606;9.630;2022-08-02T09:00:56;24.60;99.90
19496;DHT22;9888;48.606;9.630;2022-08-02T09:03:43;24.90;99.90
19496;DHT22;9888;48.606;9.630;2022-08-02T09:06:15;24.80;99.90
19496;DHT22;9888;48.606;9.630;2022-08-02T09:08:49;24.90;99.90
19496;DHT22;9888;48.606;9.630;2022-08-02T09:11:19;24.90;99.90
19496;DHT22;9888;48.606;9.630;2022-08-02T09:17:16;25.40;99.90
19496;DHT22;9888;48.606;9.630;2022-08-02T09:26:48;25.20;99.90
19496;DHT22;9888;48.606;9.630;2022-08-02T09:30:01;25.60;99.90
19496;DHT22;9888;48.606;9.630;2022-08-02T09:36:05;26.00;99.90
19496;DHT22;9888;48.606;9.630;2022-08-02T09:45:02;26.40;99.90
19496;DHT22;9888;48.606;9.630;2022-08-02T09:47:31;26.00;99.90
19496;DHT22;9888;48.606;9.630;2022-08-02T09:50:20;25.80;99.90
19496;DHT22;9888;48.606;9.630;2022-08-02T09:52:49;25.70;99.90
19496;DHT22;9888;48.606;9.630;2022-08-02T09:55:18;25.80;99.90
19496;DHT22;9888;48.606;9.630;2022-08-02T09:57:48;26.20;99.90
19496;DHT22;9888;48.606;9.630;2022-08-02T10:00:27;26.50;99.90
19496;DHT22;9888;48.606;9.630;2022-08-02T10:03:07;26.70;99.90
19496;DHT22;9888;48.606;9.630;2022-08-02T10:12:20;26.70;99.90
19496;DHT22;9888;48.606;9.630;2022-08-02T10:14:54;26.40;99.90
19496;DHT22;9888;48.606;9.630;2022-08-02T10:17:24;26.20;99.90
19496;DHT22;9888;48.606;9.630;2022-08-02T10:19:54;26.20;99.90
19496;DHT22;9888;48.606;9.630;2022-08-02T10:22:24;26.60;99.90
19496;DHT22;9888;48.606;9.630;2022-08-02T10:25:11;26.90;99.90
19496;DHT22;9888;48.606;9.630;2022-08-02T10:27:42;26.80;99.90
19496;DHT22;9888;48.606;9.630;2022-08-02T22:12:08;14.90;99.90
19496;DHT22;9888;48.606;9.630;2022-08-02T22:14:38;14.90;99.90
19496;DHT22;9888;48.606;9.630;2022-08-02T22:17:08;14.90;99.90
19496;DHT22;9888;48.606;9.630;2022-08-02T22:19:39;14.90;99.90
19496;DHT22;9888;48.606;9.630;2022-08-02T22:22:08;14.80;99.90
19496;DHT22;9888;48.606;9.630;2022-08-02T22:24:37;14.90;99.90
19496;DHT22;9888;48.606;9.630;2022-08-02T22:27:09;14.80;99.90
19496;DHT22;9888;48.606;9.630;2022-08-02T22:29:36;14.80;99.90
19496;DHT22;9888;48.606;9.630;2022-08-02T22:32:04;14.80;99.90
19496;DHT22;9888;48.606;9.630;2022-08-02T22:34:37;14.80;99.90
19496;DHT22;9888;48.606;9.630;2022-08-02T22:47:19;14.60;99.90
19496;DHT22;9888;48.606;9.630;2022-08-02T22:49:47;14.60;99.90
19496;DHT22;9888;48.606;9.630;2022-08-02T22:52:15;14.60;99.90
19496;DHT22;9888;48.606;9.630;2022-08-02T22:54:45;14.60;99.90
19496;DHT22;9888;48.606;9.630;2022-08-02T22:57:14;14.60;99.90
19496;DHT22;9888;48.606;9.630;2022-08-02T23:06:30;14.50;99.90
19496;DHT22;9888;48.606;9.630;2022-08-02T23:12:21;14.40;99.90
19496;DHT22;9888;48.606;9.630;2022-08-02T23:14:53;14.30;99.90
19496;DHT22;9888;48.606;9.630;2022-08-02T23:24:09;14.20;99.90
19496;DHT22;9888;48.606;9.630;2022-08-02T23:26:37;14.20;99.90
19496;DHT22;9888;48.606;9.630;2022-08-02T23:29:05;14.20;99.90
19496;DHT22;9888;48.606;9.630;2022-08-02T23:31:46;14.20;99.90
19496;DHT22;9888;48.606;9.630;2022-08-02T23:34:17;14.10;99.90
19496;DHT22;9888;48.606;9.630;2022-08-02T23:36:50;14.10;99.90
19496;DHT22;9888;48.606;9.630;2022-08-02T23:39:18;14.10;99.90
19496;DHT22;9888;48.606;9.630;2022-08-02T23:41:47;14.10;99.90
19496;DHT22;9888;48.606;9.630;2022-08-02T23:47:37;14.10;99.90
19496;DHT22;9888;48.606;9.630;2022-08-02T23:50:04;14.00;99.90
19496;DHT22;9888;48.606;9.630;2022-08-02T23:52:34;14.00;99.90
19496;DHT22;9888;48.606;9.630;2022-08-02T23:55:02;14.00;99.90
